createdAt,value
2023-05-02T00:04:28.577Z,101534.66
2023-05-02T00:09:31.241Z,101525.41
2023-05-02T00:14:33.873Z,101527.69
2023-05-02T00:19:40.408Z,101530.34
2023-05-02T00:24:42.957Z,101533.03
2023-05-02T00:29:45.584Z,101526.88
2023-05-02T00:34:48.256Z,101532.44
2023-05-02T00:39:51.954Z,101529.34
2023-05-02T00:44:54.526Z,101535.94
2023-05-02T00:49:58.269Z,101537.19
2023-05-02T00:55:03.638Z,101533.47
2023-05-02T01:00:11.078Z,101525.63
2023-05-02T01:05:37.402Z,101551.00
2023-05-02T01:11:05.319Z,101549.13
2023-05-02T01:16:11.489Z,101558.63
2023-05-02T01:21:14.310Z,101574.88
2023-05-02T01:26:35.457Z,101572.63
2023-05-02T01:31:44.651Z,101584.50
2023-05-02T01:36:50.669Z,101574.19
2023-05-02T01:41:57.040Z,101586.09
2023-05-02T01:47:03.727Z,101595.56
2023-05-02T01:52:11.878Z,101585.66
2023-05-02T01:57:17.118Z,101598.22
2023-05-02T02:02:21.234Z,101605.81
2023-05-02T02:07:24.205Z,101593.84
2023-05-02T02:12:31.482Z,101603.97
2023-05-02T02:17:38.209Z,101610.59
2023-05-02T02:22:43.249Z,101604.84
2023-05-02T02:27:46.042Z,101601.78
2023-05-02T02:32:52.745Z,101610.47
2023-05-02T02:38:26.182Z,101609.44
2023-05-02T02:43:31.675Z,101615.41
2023-05-02T02:48:43.743Z,101629.78
2023-05-02T02:54:25.738Z,101643.75
2023-05-02T02:59:35.799Z,101646.63
2023-05-02T03:04:43.592Z,101649.75
2023-05-02T03:09:48.804Z,101652.44
2023-05-02T03:15:15.421Z,101657.34
2023-05-02T03:20:20.218Z,101658.59
2023-05-02T03:25:24.465Z,101665.63
2023-05-02T03:30:27.901Z,101666.91
2023-05-02T03:35:30.804Z,101658.06
2023-05-02T03:40:33.247Z,101662.22
2023-05-02T03:45:36.046Z,101670.69
2023-05-02T03:50:38.850Z,101671.53
2023-05-02T03:55:42.727Z,101678.75
2023-05-02T04:00:53.193Z,101676.69
2023-05-02T04:05:56.161Z,101689.69
2023-05-02T04:10:58.791Z,101687.19
2023-05-02T04:16:02.425Z,101692.75
2023-05-02T04:21:11.669Z,101697.88
2023-05-02T04:26:15.474Z,101694.75
2023-05-02T04:31:25.265Z,101706.72
2023-05-02T04:36:28.861Z,101704.81
2023-05-02T04:41:31.750Z,101715.91
2023-05-02T04:46:39.954Z,101721.25
2023-05-02T04:51:43.211Z,101727.03
2023-05-02T04:56:46.980Z,101737.31
2023-05-02T05:01:51.145Z,101735.97
2023-05-02T05:06:55.187Z,101736.69
2023-05-02T05:11:59.448Z,101744.13
2023-05-02T05:17:02.686Z,101723.88
2023-05-02T05:22:05.789Z,101720.47
2023-05-02T05:27:08.271Z,101709.41
2023-05-02T05:32:11.681Z,101720.16
2023-05-02T05:37:16.108Z,101724.81
2023-05-02T05:42:18.991Z,101720.66
2023-05-02T05:47:26.560Z,101725.06
2023-05-02T05:52:30.588Z,101721.28
2023-05-02T05:57:35.987Z,101712.81
2023-05-02T06:02:38.857Z,101705.06
2023-05-02T06:07:41.931Z,101697.03
2023-05-02T06:12:47.158Z,101706.94
2023-05-02T06:17:52.480Z,101713.91
2023-05-02T06:22:55.022Z,101707.41
2023-05-02T06:27:57.600Z,101711.81
2023-05-02T06:33:00.363Z,101707.97
2023-05-02T06:38:03.037Z,101692.91
2023-05-02T06:43:23.944Z,101701.25
2023-05-02T06:48:26.720Z,101699.47
2023-05-02T06:53:30.597Z,101709.41
2023-05-02T06:58:35.117Z,101694.41
2023-05-02T07:03:37.697Z,101704.59
2023-05-02T07:08:40.264Z,101706.31
2023-05-02T07:13:46.398Z,101721.63
2023-05-02T07:18:49.126Z,101724.56
2023-05-02T07:23:51.675Z,101720.44
2023-05-02T07:28:54.123Z,101726.97
2023-05-02T07:33:56.727Z,101717.91
2023-05-02T07:38:59.308Z,101718.00
2023-05-02T07:44:02.292Z,101717.53
2023-05-02T07:49:05.216Z,101719.59
2023-05-02T07:54:18.160Z,101704.94
2023-05-02T07:59:20.733Z,101704.16
2023-05-02T08:04:23.418Z,101702.00
2023-05-02T08:09:26.296Z,101699.91
2023-05-02T08:14:29.235Z,101695.41
2023-05-02T08:19:32.269Z,101698.59
2023-05-02T08:24:35.093Z,101705.84
2023-05-02T08:29:37.520Z,101696.56
2023-05-02T08:34:58.688Z,101717.91
2023-05-02T08:40:01.680Z,101719.69
2023-05-02T08:45:09.301Z,101720.44
2023-05-02T08:50:12.104Z,101721.94
2023-05-02T08:55:15.339Z,101716.50
2023-05-02T09:00:18.372Z,101722.75
2023-05-02T09:05:24.309Z,101714.38
2023-05-02T09:10:29.352Z,101710.31
2023-05-02T09:15:32.175Z,101724.69
2023-05-02T09:20:41.283Z,101716.06
2023-05-02T09:25:44.009Z,101728.53
2023-05-02T09:30:50.334Z,101732.16
2023-05-02T09:35:56.003Z,101734.22
2023-05-02T09:40:58.610Z,101733.66
2023-05-02T09:46:10.013Z,101742.53
2023-05-02T09:51:18.485Z,101739.44
2023-05-02T09:56:22.554Z,101751.97
2023-05-02T10:01:26.467Z,101734.63
2023-05-02T10:06:29.084Z,101745.66
2023-05-02T10:11:33.818Z,101742.41
2023-05-02T10:16:39.195Z,101757.75
2023-05-02T10:21:44.441Z,101748.72
2023-05-02T10:26:48.764Z,101746.44
2023-05-02T10:31:52.286Z,101754.72
2023-05-02T10:37:01.622Z,101761.59
2023-05-02T10:42:06.745Z,101769.28
2023-05-02T10:47:20.469Z,101762.41
2023-05-02T10:52:30.072Z,101773.31
2023-05-02T10:57:32.672Z,101769.91
2023-05-02T11:02:36.198Z,101775.72
2023-05-02T11:07:38.776Z,101766.84
2023-05-02T11:12:49.414Z,101764.16
2023-05-02T11:18:07.944Z,101760.47
2023-05-02T11:23:17.338Z,101766.72
2023-05-02T11:28:41.313Z,101759.78
2023-05-02T11:33:43.837Z,101750.59
2023-05-02T11:38:46.821Z,101765.09
2023-05-02T11:44:02.686Z,101757.44
2023-05-02T11:49:09.736Z,101758.22
2023-05-02T11:54:20.857Z,101768.13
2023-05-02T11:59:23.468Z,101784.69
2023-05-02T12:04:26.756Z,101784.59
2023-05-02T12:09:29.334Z,101783.69
2023-05-02T12:14:36.849Z,101786.91
2023-05-02T12:19:39.607Z,101793.56
2023-05-02T12:24:43.644Z,101809.63
2023-05-02T12:35:23.213Z,101799.22
2023-05-02T12:40:26.391Z,101805.47
2023-05-02T12:45:33.856Z,101788.56
2023-05-02T12:50:38.032Z,101795.19
2023-05-02T12:55:41.683Z,101801.56
2023-05-02T13:00:45.729Z,101791.34
2023-05-02T13:05:56.537Z,101810.44
2023-05-02T13:10:59.259Z,101803.38
2023-05-02T13:16:02.233Z,101802.06
2023-05-02T13:21:05.316Z,101816.78
2023-05-02T13:26:07.818Z,101808.47
2023-05-02T13:31:10.798Z,101816.28
2023-05-02T13:36:13.449Z,101827.38
2023-05-02T13:41:19.517Z,101816.28
2023-05-02T13:46:22.144Z,101815.84
2023-05-02T13:51:27.641Z,101815.31
2023-05-02T13:56:30.158Z,101824.25
2023-05-02T14:01:33.000Z,101812.66
2023-05-02T14:06:36.454Z,101832.97
2023-05-02T14:11:42.067Z,101832.06
2023-05-02T14:16:49.621Z,101832.75
2023-05-02T14:21:53.124Z,101855.47
2023-05-02T14:26:55.683Z,101853.72
2023-05-02T14:31:58.395Z,101844.50
2023-05-02T14:37:02.522Z,101847.47
2023-05-02T14:42:05.064Z,101857.75
2023-05-02T14:47:07.733Z,101852.69
2023-05-02T14:52:10.430Z,101863.81
2023-05-02T14:57:13.402Z,101863.50
2023-05-02T15:02:16.193Z,101859.97
2023-05-02T15:07:18.933Z,101860.16
2023-05-02T15:17:41.509Z,101893.41
2023-05-02T15:22:44.223Z,101898.00
2023-05-02T15:28:05.413Z,101910.19
2023-05-02T15:33:07.917Z,101909.75
2023-05-02T15:38:10.704Z,101921.41
2023-05-02T15:43:13.233Z,101921.00
2023-05-02T15:48:15.803Z,101927.97
2023-05-02T15:53:19.411Z,101936.69
2023-05-02T15:58:22.047Z,101935.91
2023-05-02T16:03:27.240Z,101944.81
2023-05-02T16:08:29.855Z,101952.44
2023-05-02T16:13:32.478Z,101958.06
2023-05-02T16:18:34.952Z,101979.19
2023-05-02T16:23:37.641Z,101964.66
2023-05-02T16:28:40.414Z,101981.50
2023-05-02T16:33:43.238Z,101986.16
2023-05-02T16:38:45.797Z,101984.56
2023-05-02T16:43:50.017Z,101993.72
2023-05-02T16:48:52.764Z,102000.44
2023-05-02T16:53:55.369Z,101992.41
2023-05-02T16:58:57.982Z,102002.09
2023-05-02T17:04:00.848Z,101992.63
2023-05-02T17:09:04.351Z,101985.59
2023-05-02T17:14:06.995Z,101991.00
2023-05-02T17:19:11.965Z,101973.22
2023-05-02T17:24:14.539Z,101986.03
2023-05-02T17:29:17.151Z,101996.78
2023-05-02T17:34:19.770Z,101998.44
2023-05-02T17:39:27.730Z,101997.81
2023-05-02T17:44:36.214Z,101993.25
2023-05-02T17:49:38.862Z,101988.94
2023-05-02T17:54:42.240Z,101996.31
2023-05-02T17:59:44.818Z,102006.22
2023-05-02T18:04:47.652Z,101998.28
2023-05-02T18:09:53.206Z,102011.06
2023-05-02T18:14:56.266Z,102015.78
2023-05-02T18:20:04.986Z,102014.72
2023-05-02T18:25:08.771Z,102020.66
2023-05-02T18:30:12.091Z,102013.41
2023-05-02T18:35:14.605Z,102021.59
2023-05-02T18:40:17.110Z,102010.03
2023-05-02T18:45:20.251Z,102008.97
2023-05-02T18:50:23.259Z,102015.16
2023-05-02T18:55:26.082Z,102013.06
2023-05-02T19:00:31.652Z,102020.41
2023-05-02T19:10:54.632Z,102022.00
2023-05-02T19:15:57.194Z,102034.91
2023-05-02T19:21:00.882Z,102036.88
2023-05-02T19:26:03.616Z,102031.03
2023-05-02T19:31:14.133Z,102029.97
2023-05-02T19:36:17.038Z,102042.44
2023-05-02T19:41:21.350Z,102059.44
2023-05-02T19:46:26.325Z,102052.19
2023-05-02T19:51:29.885Z,102052.00
2023-05-02T19:56:32.513Z,102050.44
2023-05-02T20:01:35.259Z,102061.56
2023-05-02T20:06:37.873Z,102075.06
2023-05-02T20:11:40.598Z,102072.38
2023-05-02T20:16:43.168Z,102078.66
2023-05-02T20:21:46.019Z,102070.44
2023-05-02T20:26:49.784Z,102078.22
2023-05-02T20:31:54.420Z,102083.28
2023-05-02T20:36:58.816Z,102076.41
2023-05-02T20:42:01.577Z,102085.19
2023-05-02T20:47:04.194Z,102086.69
2023-05-02T20:52:06.848Z,102092.50
2023-05-02T20:57:09.380Z,102081.25
2023-05-02T21:02:13.328Z,102086.13
2023-05-02T21:07:16.192Z,102089.91
2023-05-02T21:12:21.225Z,102091.09
2023-05-02T21:17:26.587Z,102087.50
2023-05-02T21:22:29.123Z,102091.19
2023-05-02T21:27:31.699Z,102081.03
2023-05-02T21:32:34.167Z,102088.59
2023-05-02T21:37:36.765Z,102079.66
2023-05-02T21:42:42.342Z,102093.09
2023-05-02T21:47:47.506Z,102072.81
2023-05-02T21:52:50.110Z,102069.19
2023-05-02T21:57:52.675Z,102082.72
2023-05-02T22:02:55.197Z,102078.81
2023-05-02T22:07:57.683Z,102085.41
2023-05-02T22:13:00.202Z,102098.16
2023-05-02T22:18:08.797Z,102097.06
2023-05-02T22:23:12.496Z,102103.31
2023-05-02T22:28:16.396Z,102100.38
2023-05-02T22:33:19.147Z,102108.59
2023-05-02T22:38:21.620Z,102105.16
2023-05-02T22:43:24.473Z,102080.94
2023-05-02T22:48:26.966Z,102110.88
2023-05-02T22:53:30.424Z,102093.25
2023-05-02T22:58:35.399Z,102106.09
2023-05-02T23:03:38.070Z,102111.75
2023-05-02T23:08:40.788Z,102105.13
2023-05-02T23:13:43.301Z,102116.63
2023-05-02T23:18:47.757Z,102115.13
2023-05-02T23:23:50.277Z,102112.94
2023-05-02T23:28:53.523Z,102112.50
2023-05-02T23:33:56.303Z,102101.03
2023-05-02T23:39:02.118Z,102101.69
2023-05-02T23:44:05.348Z,102110.72
2023-05-02T23:49:07.925Z,102122.38
2023-05-02T23:54:10.483Z,102140.84
2023-05-02T23:59:12.971Z,102138.38
